This is the latest recevied weather packets stored in our database for station/object AA8FM-13. If no packets are shown the sender has not sent any weather packets the latest 10 day(s).
| Time | Temp. | Humidity | Pressure | Rain* | Wind** | Luminosity | Snow |
|---|---|---|---|---|---|---|---|
| 1777362230 | 11.67° C | 91% | 1011.5 hPa | 0 mm | - | 0 W/m² | - |
| 1777361927 | 11.67° C | 92% | 1011.6 hPa | 0 mm | - | 0 W/m² | - |
| 1777361624 | 12.22° C | 90% | 1011.6 hPa | 1.78 mm | - | 0 W/m² | - |
| 1777361322 | 12.78° C | 87% | 1011.5 hPa | 1.78 mm | - | 0 W/m² | - |
| 1777361018 | 12.78° C | 83% | 1011.9 hPa | 0 mm | - | 0 W/m² | - |
| 1777360716 | 13.33° C | 78% | 1012.1 hPa | 1.27 mm | - | 0 W/m² | - |
| 1777360413 | 13.89° C | 67% | 1012.1 hPa | 3.05 mm | - | 0 W/m² | - |
| 1777360110 | 13.89° C | 76% | 1012.1 hPa | 3.05 mm | - | 0 W/m² | - |
| 1777359807 | 15° C | 65% | 1012.1 hPa | 1.78 mm | - | 0 W/m² | - |
| 1777359504 | 16.67° C | 52% | 1012.4 hPa | 0 mm | - | 0 W/m² | - |
| 1777359200 | 17.22° C | 49% | 1013 hPa | 0 mm | - | 0 W/m² | - |
| 1777358899 | 17.22° C | 50% | 1013.2 hPa | 0 mm | - | 0 W/m² | - |
| 1777358595 | 17.22° C | 49% | 1013.5 hPa | 0 mm | - | 0 W/m² | - |
| 1777358293 | 17.22° C | 49% | 1013.7 hPa | 0 mm | - | 0 W/m² | - |
| 1777357991 | 17.22° C | 50% | 1013.8 hPa | 0 mm | - | 0 W/m² | - |
| 1777357688 | 17.22° C | 51% | 1013.7 hPa | 0 mm | - | 0 W/m² | - |
| 1777357384 | 17.22° C | 52% | 1014.1 hPa | 0 mm | - | 0 W/m² | - |
| 1777357081 | 17.22° C | 51% | 1014.1 hPa | 0 mm | - | 0 W/m² | - |
| 1777356778 | 17.22° C | 50% | 1013.8 hPa | 0 mm | - | 0 W/m² | - |
| 1777356476 | 17.22° C | 50% | 1013.7 hPa | 0 mm | - | 0 W/m² | - |
| 1777356173 | 17.22° C | 49% | 1013.4 hPa | 0 mm | - | 0 W/m² | - |
| 1777355869 | 17.22° C | 50% | 1013.5 hPa | 0 mm | - | 0 W/m² | - |
| 1777355566 | 17.22° C | 52% | 1013.4 hPa | 0 mm | - | 0 W/m² | - |
| 1777355263 | 17.22° C | 52% | 1013.2 hPa | 0 mm | - | 0 W/m² | - |
| 1777354959 | 17.22° C | 50% | 1013.3 hPa | 0 mm | - | 0 W/m² | - |
* Rain latest hour (hover to see other rain measurements)
** Current wind speed in m/s (hover to see current wind gust speed)